Time;durP1;ratioP1;P1;durP2;ratioP2;P2;SDS_P1;SDS_P2;PMS_P1;PMS_P2;Temp;Humidity;BMP_temperature;BMP_pressure;BME280_temperature;BME280_humidity;BME280_pressure;Samples;Min_cycle;Max_cycle;Signal;HPM_P1;HPM_P2
2021/12/03 00:02:13;;;;;;;15.40;7.50;;;;;;;4.79;71.67;97315.62;102167;1312;75538;-24
2021/12/03 00:04:42;;;;;;;14.10;6.80;;;;;;;4.47;72.36;97308.85;102194;1312;75067;-23
2021/12/03 00:07:10;;;;;;;29.10;11.00;;;;;;;4.17;73.32;97299.94;102045;1312;74258;-23
2021/12/03 00:09:39;;;;;;;31.40;11.50;;;;;;;3.92;74.45;97299.08;102024;1312;61779;-23
2021/12/03 00:12:22;;;;;;;43.20;14.80;;;;;;;4.39;74.08;97300.92;102054;1316;61205;-23
2021/12/03 00:14:51;;;;;;;21.80;9.20;;;;;;;4.88;72.86;97308.13;102105;1312;75542;-23
2021/12/03 00:17:19;;;;;;;21.40;10.60;;;;;;;4.90;72.40;97308.45;102144;1316;74266;-23
2021/12/03 00:19:47;;;;;;;25.10;12.60;;;;;;;4.71;72.50;97309.09;102122;1316;72989;-23
2021/12/03 00:22:16;;;;;;;19.50;8.50;;;;;;;4.46;72.88;97313.33;101996;1316;61892;-23
2021/12/03 00:24:44;;;;;;;21.40;10.10;;;;;;;4.22;73.41;97315.38;102063;1317;61888;-23
2021/12/03 00:27:12;;;;;;;25.40;10.10;;;;;;;3.99;74.10;97312.77;102113;1316;75616;-24
2021/12/03 00:29:42;;;;;;;11.40;5.50;;;;;;;3.88;74.36;97306.63;102096;1317;75991;-23
2021/12/03 00:32:10;;;;;;;14.10;6.80;;;;;;;4.45;74.26;97309.14;102176;1312;74520;-23
2021/12/03 00:34:38;;;;;;;15.40;7.40;;;;;;;5.10;72.64;97303.80;102195;1312;62167;-23
2021/12/03 00:37:06;;;;;;;16.70;7.60;;;;;;;5.20;71.65;97293.51;102322;1313;61195;-23
2021/12/03 00:39:34;;;;;;;16.00;8.60;;;;;;;5.02;71.58;97286.65;102239;1317;75670;-23
2021/12/03 00:42:04;;;;;;;18.30;8.60;;;;;;;4.80;72.04;97296.39;102278;1313;76068;-23
2021/12/03 00:44:33;;;;;;;18.50;8.20;;;;;;;4.57;72.37;97305.72;102253;1313;74153;-23
2021/12/03 00:47:01;;;;;;;21.50;8.60;;;;;;;4.34;72.88;97303.57;102283;1313;61183;-23
2021/12/03 00:49:30;;;;;;;18.90;9.20;;;;;;;4.17;73.13;97296.73;102296;1312;61101;-23
2021/12/03 00:51:58;;;;;;;14.10;6.30;;;;;;;4.06;73.59;97293.81;102258;1319;75633;-23
2021/12/03 00:54:26;;;;;;;21.70;8.20;;;;;;;4.56;73.48;97294.45;102261;1312;75142;-23
2021/12/03 00:56:55;;;;;;;15.50;6.70;;;;;;;5.21;71.42;97272.80;102203;1312;73407;-23
2021/12/03 00:59:23;;;;;;;15.00;8.10;;;;;;;5.31;71.62;97255.05;102140;1313;61909;-23
2021/12/03 01:01:51;;;;;;;23.90;9.40;;;;;;;5.14;71.49;97264.81;102124;1316;61933;-23
2021/12/03 01:04:20;;;;;;;24.60;10.60;;;;;;;4.93;71.82;97276.72;101699;1312;75366;-23
2021/12/03 01:06:48;;;;;;;19.20;9.40;;;;;;;4.74;72.00;97282.11;102122;1316;74968;-24
2021/12/03 01:09:16;;;;;;;19.40;8.90;;;;;;;4.54;72.12;97286.69;102180;1313;74162;-23
2021/12/03 01:11:45;;;;;;;15.60;9.10;;;;;;;4.32;72.45;97288.09;102069;1313;61417;-23
2021/12/03 01:14:14;;;;;;;11.50;5.80;;;;;;;4.15;73.10;97287.55;102050;1313;61111;-23
2021/12/03 01:16:43;;;;;;;19.30;7.50;;;;;;;4.63;73.30;97288.95;102109;1313;72872;-23
2021/12/03 01:19:11;;;;;;;17.30;7.90;;;;;;;5.26;72.26;97278.88;102102;1316;75013;-23
2021/12/03 01:21:40;;;;;;;18.80;7.40;;;;;;;5.41;71.15;97283.23;102045;1313;73611;-23
2021/12/03 01:24:08;;;;;;;17.40;8.40;;;;;;;5.25;70.65;97289.59;102146;1316;61635;-23
2021/12/03 01:26:39;;;;;;;22.70;9.60;;;;;;;4.74;72.50;97295.88;102159;1313;61207;-23
2021/12/03 01:29:08;;;;;;;25.10;9.80;;;;;;;4.42;73.52;97296.37;102127;1317;75905;-23
2021/12/03 01:31:38;;;;;;;18.20;9.10;;;;;;;4.32;73.63;97300.95;102088;1316;75555;-23
2021/12/03 01:34:06;;;;;;;20.10;8.80;;;;;;;4.17;74.19;97301.70;102130;1313;73304;-23
2021/12/03 01:36:36;;;;;;;12.40;5.80;;;;;;;4.01;74.82;97300.89;102136;1318;61758;-23
2021/12/03 01:39:07;;;;;;;12.40;6.20;;;;;;;4.53;74.45;97295.23;102263;1313;61070;-23
2021/12/03 01:41:35;;;;;;;14.60;7.20;;;;;;;5.26;72.96;97286.80;102268;1313;76073;-23
2021/12/03 01:44:04;;;;;;;17.00;6.90;;;;;;;5.39;72.06;97276.39;102310;1316;75869;-23
2021/12/03 01:46:33;;;;;;;16.10;7.90;;;;;;;5.16;71.02;97269.43;102289;1312;72273;-23
2021/12/03 01:49:02;;;;;;;17.00;9.40;;;;;;;4.81;72.39;97255.92;102252;1319;61325;-23
2021/12/03 01:51:31;;;;;;;47.40;19.60;;;;;;;4.48;73.56;97245.05;102132;1316;62538;-23
2021/12/03 01:53:59;;;;;;;43.70;17.10;;;;;;;4.16;74.80;97239.45;102255;1313;74556;-23
2021/12/03 01:56:28;;;;;;;38.10;16.40;;;;;;;3.87;76.13;97231.15;102151;1317;76214;-23
2021/12/03 01:58:56;;;;;;;30.10;10.50;;;;;;;3.78;76.68;97234.66;102117;1313;73191;-24
2021/12/03 02:01:26;;;;;;;35.50;14.00;;;;;;;4.19;75.91;97229.54;102159;1312;62166;-23
2021/12/03 02:03:56;;;;;;;30.70;16.70;;;;;;;4.82;73.69;97240.16;102006;1317;61858;-23
2021/12/03 02:06:25;;;;;;;36.70;13.70;;;;;;;5.06;73.14;97254.96;101907;1317;75562;-23
2021/12/03 02:08:54;;;;;;;22.70;12.10;;;;;;;5.01;72.84;97248.16;102154;1312;74560;-23
2021/12/03 02:11:23;;;;;;;25.20;12.40;;;;;;;4.88;72.71;97229.91;102180;1316;72444;-24
2021/12/03 02:13:52;;;;;;;28.90;14.20;;;;;;;4.67;73.02;97229.79;102173;1313;61213;-23
2021/12/03 02:16:21;;;;;;;38.00;18.50;;;;;;;4.49;73.40;97227.00;101826;1313;61100;-23
2021/12/03 02:18:50;;;;;;;47.50;24.50;;;;;;;4.19;74.58;97220.10;102288;1318;75598;-23
2021/12/03 02:21:18;;;;;;;27.50;13.80;;;;;;;3.92;76.03;97211.02;102256;1312;73551;-23
2021/12/03 02:23:47;;;;;;;42.50;18.60;;;;;;;4.37;75.45;97212.36;102271;1313;73202;-23
2021/12/03 02:26:15;;;;;;;39.20;18.70;;;;;;;5.02;73.18;97222.31;102137;1316;61904;-23
2021/12/03 02:28:48;;;;;;;22.70;11.60;;;;;;;5.15;72.54;97237.89;102122;1317;61793;-23
2021/12/03 02:31:17;;;;;;;;;;;;;;;5.02;72.40;97242.92;101903;1319;75613;-23
2021/12/03 02:33:46;;;;;;;28.90;15.80;;;;;;;4.79;72.73;97229.65;102184;1312;74393;-24
2021/12/03 02:36:15;;;;;;;31.10;15.60;;;;;;;4.54;73.23;97234.51;102141;1312;74635;-23
2021/12/03 02:38:45;;;;;;;31.40;15.50;;;;;;;4.30;73.74;97247.86;102026;1312;61203;-23
2021/12/03 02:41:14;;;;;;;27.40;16.00;;;;;;;4.11;74.25;97249.92;102212;1313;61268;-24
2021/12/03 02:43:42;;;;;;;23.40;9.80;;;;;;;3.98;74.72;97254.66;102255;1316;75720;-23
2021/12/03 02:46:10;;;;;;;35.00;16.80;;;;;;;4.38;74.64;97259.73;102313;1317;76155;-23
2021/12/03 02:48:39;;;;;;;44.90;21.20;;;;;;;4.91;72.88;97244.47;102248;1317;74181;-23
2021/12/03 02:51:08;;;;;;;41.60;22.40;;;;;;;4.61;73.34;97230.44;102298;1313;62154;-24
2021/12/03 02:53:37;;;;;;;45.00;23.40;;;;;;;4.14;75.39;97222.59;102277;1313;61179;-23
2021/12/03 02:56:05;;;;;;;45.20;22.20;;;;;;;4.07;75.79;97235.05;102219;1319;73697;-23
2021/12/03 02:58:34;;;;;;;36.30;20.60;;;;;;;4.02;75.57;97243.82;102312;1316;76233;-23
2021/12/03 03:01:06;;;;;;;43.80;23.20;;;;;;;3.78;76.52;97239.48;102254;1313;74928;-24
2021/12/03 03:03:34;;;;;;;31.30;14.50;;;;;;;3.62;77.38;97233.09;102271;1313;62923;-24
2021/12/03 03:06:04;;;;;;;35.50;18.70;;;;;;;4.07;76.34;97227.11;102293;1312;61246;-23
2021/12/03 03:08:32;;;;;;;41.30;22.30;;;;;;;4.51;74.44;97213.98;102274;1312;74950;-23
2021/12/03 03:11:06;;;;;;;44.60;21.40;;;;;;;4.49;74.22;97212.59;102296;1313;76167;-23
2021/12/03 03:13:35;;;;;;;34.90;17.00;;;;;;;4.34;74.54;97213.99;102175;1312;74569;-23
2021/12/03 03:16:04;;;;;;;32.00;16.10;;;;;;;4.03;75.54;97217.35;102209;1317;61319;-24
2021/12/03 03:18:33;;;;;;;34.80;19.40;;;;;;;3.68;77.20;97221.41;102281;1319;61932;-23
2021/12/03 03:21:03;;;;;;;29.10;14.90;;;;;;;3.36;78.47;97220.70;102311;1316;74812;-23
2021/12/03 03:23:31;;;;;;;19.00;10.50;;;;;;;3.24;79.21;97229.39;102179;1319;75201;-23
2021/12/03 03:25:59;;;;;;;24.50;13.10;;;;;;;3.84;77.55;97230.20;102284;1319;72850;-23
2021/12/03 03:28:28;;;;;;;26.30;13.30;;;;;;;4.11;76.02;97228.33;102217;1317;62622;-25
2021/12/03 03:30:59;;;;;;;35.90;15.80;;;;;;;3.95;76.07;97226.02;101948;1316;61103;-23
2021/12/03 03:33:28;;;;;;;24.00;11.20;;;;;;;3.66;76.88;97229.77;102172;1315;73309;-23
2021/12/03 03:35:56;;;;;;;18.90;9.10;;;;;;;3.46;77.61;97234.50;102257;1315;76108;-23
2021/12/03 03:38:25;;;;;;;17.20;9.20;;;;;;;3.34;77.64;97240.94;102237;1312;73670;-23
2021/12/03 03:40:53;;;;;;;14.50;8.10;;;;;;;3.24;77.56;97248.77;102195;1313;61450;-23
2021/12/03 03:43:22;;;;;;;14.90;8.50;;;;;;;3.64;75.60;97252.20;102280;1316;60978;-23
2021/12/03 03:45:51;;;;;;;15.30;9.30;;;;;;;3.93;73.56;97251.77;102314;1317;75452;-24
2021/12/03 03:48:20;;;;;;;10.70;5.70;;;;;;;3.97;73.08;97262.64;102280;1312;76112;-23
2021/12/03 03:50:49;;;;;;;8.80;5.10;;;;;;;3.78;72.86;97272.05;102269;1312;73948;-23
2021/12/03 03:53:17;;;;;;;7.10;4.40;;;;;;;3.61;73.88;97280.64;102245;1319;61071;-23
2021/12/03 03:55:45;;;;;;;6.50;4.00;;;;;;;3.45;74.58;97282.77;102188;1317;61059;-24
2021/12/03 03:58:14;;;;;;;7.70;4.20;;;;;;;3.30;75.04;97290.13;102141;1317;74416;-24
2021/12/03 04:00:43;;;;;;;7.10;4.10;;;;;;;3.45;75.11;97288.08;102028;1313;75085;-23
2021/12/03 04:03:12;;;;;;;9.90;5.40;;;;;;;3.71;74.67;97290.46;101997;1312;73420;-24
2021/12/03 04:05:40;;;;;;;7.80;5.40;;;;;;;3.77;74.84;97294.30;101847;1319;61939;-24
2021/12/03 04:08:09;;;;;;;6.20;4.30;;;;;;;3.41;75.79;97293.73;102149;1316;61162;-24
2021/12/03 04:10:38;;;;;;;7.80;4.70;;;;;;;3.13;76.73;97297.66;102298;1317;75467;-23
2021/12/03 04:13:06;;;;;;;8.30;5.20;;;;;;;2.91;77.84;97299.20;102280;1316;76269;-23
2021/12/03 04:15:37;;;;;;;9.20;5.80;;;;;;;2.71;78.37;97303.30;102282;1312;74466;-23
2021/12/03 04:18:06;;;;;;;9.90;5.30;;;;;;;2.98;77.11;97304.66;102060;1313;285018;-23
2021/12/03 04:20:34;;;;;;;9.40;5.10;;;;;;;2.92;77.44;97303.21;102284;1312;61074;-24
2021/12/03 04:23:03;;;;;;;7.00;5.20;;;;;;;2.67;78.39;97303.58;102317;1317;72482;-23
2021/12/03 04:25:31;;;;;;;9.80;5.50;;;;;;;2.35;78.92;97304.27;102257;1310;72482;-23
2021/12/03 04:28:00;;;;;;;10.50;4.50;;;;;;;2.18;79.28;97309.50;102232;1312;74476;-23
2021/12/03 04:30:29;;;;;;;10.20;5.00;;;;;;;2.27;79.10;97305.04;102281;1316;61259;-22
2021/12/03 04:32:57;;;;;;;12.70;5.40;;;;;;;2.39;78.97;97307.75;102316;1317;61192;-22
2021/12/03 04:35:27;;;;;;;8.00;4.60;;;;;;;2.29;79.00;97306.98;102312;1312;75383;-23
2021/12/03 04:37:56;;;;;;;9.00;4.90;;;;;;;2.06;80.27;97307.42;102309;1313;76148;-23
2021/12/03 04:40:24;;;;;;;7.90;4.00;;;;;;;1.72;81.62;97320.73;102268;1317;74458;-23
2021/12/03 04:42:53;;;;;;;5.60;3.60;;;;;;;1.77;81.61;97332.31;102170;1313;61346;-22
2021/12/03 04:45:22;;;;;;;11.20;4.90;;;;;;;1.89;81.08;97334.91;102192;1319;62109;-22
2021/12/03 04:47:52;;;;;;;7.70;4.20;;;;;;;1.76;81.34;97333.63;102004;1318;75678;-23
2021/12/03 04:50:21;;;;;;;8.90;4.80;;;;;;;1.60;81.88;97331.17;101664;1316;72472;-23
2021/12/03 04:52:49;;;;;;;7.70;4.50;;;;;;;1.30;83.13;97329.89;101897;1314;74197;-23
2021/12/03 04:55:18;;;;;;;8.90;5.20;;;;;;;1.35;83.56;97333.80;102227;1319;61170;-23
2021/12/03 04:57:49;;;;;;;3.60;2.90;;;;;;;1.42;82.09;97335.70;101959;1314;61185;-22
2021/12/03 05:00:20;;;;;;;5.70;3.90;;;;;;;1.27;81.49;97339.17;102139;1312;75786;-23
2021/12/03 05:02:50;;;;;;;6.40;4.40;;;;;;;0.91;83.02;97339.77;101915;1317;75181;-23
2021/12/03 05:05:19;;;;;;;7.10;4.60;;;;;;;0.65;83.82;97338.98;102155;1312;73447;-23
2021/12/03 05:08:02;;;;;;;5.10;2.80;;;;;;;0.44;84.72;97341.25;102106;1313;61093;-23
2021/12/03 05:10:33;;;;;;;4.70;3.10;;;;;;;0.70;83.95;97342.40;102170;1317;61177;-23
2021/12/03 05:13:11;;;;;;;7.50;3.70;;;;;;;0.83;83.14;97347.48;102136;1319;75444;-24
2021/12/03 05:15:39;;;;;;;3.60;2.60;;;;;;;0.61;83.48;97349.69;102271;1316;76289;-24
2021/12/03 05:18:09;;;;;;;5.60;3.90;;;;;;;0.44;84.21;97346.16;102164;1313;74648;-24
2021/12/03 05:20:39;;;;;;;4.80;3.70;;;;;;;0.29;85.00;97346.13;101959;1312;61215;-24
2021/12/03 05:23:08;;;;;;;4.20;3.00;;;;;;;0.72;83.82;97345.34;101897;1313;61593;-23
2021/12/03 05:25:37;;;;;;;5.70;3.50;;;;;;;1.03;82.14;97346.97;101846;1316;75645;-22
2021/12/03 05:28:06;;;;;;;4.30;3.40;;;;;;;1.00;81.84;97348.52;102108;1314;75069;-21
2021/12/03 05:30:35;;;;;;;5.50;3.20;;;;;;;0.71;82.87;97353.55;102132;1317;71942;-21
2021/12/03 05:33:04;;;;;;;6.60;3.90;;;;;;;0.48;83.90;97355.79;102021;1314;61329;-20
2021/12/03 05:35:33;;;;;;;4.80;3.30;;;;;;;0.33;84.74;97359.38;101984;1313;62056;-24
2021/12/03 05:38:06;;;;;;;2.90;1.50;;;;;;;0.69;83.56;97365.85;102039;1319;75405;-23
2021/12/03 05:40:34;;;;;;;5.40;3.00;;;;;;;0.85;82.51;97367.70;102075;1316;76076;-22
2021/12/03 05:43:29;;;;;;;4.20;2.80;;;;;;;0.79;83.08;97375.23;98918;1351;600953;-23
2021/12/03 05:45:57;;;;;;;2.90;1.20;;;;;;;0.58;83.45;97384.34;101274;1326;61231;-23
2021/12/03 05:48:25;;;;;;;3.50;1.90;;;;;;;0.40;84.02;97391.70;101122;1331;61139;-23
2021/12/03 05:50:54;;;;;;;2.40;1.60;;;;;;;0.31;84.52;97397.39;101237;1326;72834;-23
2021/12/03 05:53:22;;;;;;;3.80;2.10;;;;;;;0.74;83.57;97395.59;101230;1327;75525;-22
2021/12/03 05:55:51;;;;;;;5.70;3.80;;;;;;;0.97;82.24;97391.45;101126;1325;74846;-22
2021/12/03 05:58:20;;;;;;;6.70;4.90;;;;;;;0.84;82.66;97385.87;101267;1324;202699;-22
2021/12/03 06:00:49;;;;;;;5.70;4.40;;;;;;;0.65;82.91;97386.93;101376;1322;62170;-23
2021/12/03 06:03:17;;;;;;;10.40;4.50;;;;;;;0.39;84.30;97388.48;101415;1328;73950;-23
2021/12/03 06:05:46;;;;;;;9.30;3.70;;;;;;;0.65;83.95;97393.94;101421;1322;76096;-23
2021/12/03 06:08:14;;;;;;;9.90;4.80;;;;;;;0.99;82.08;97399.71;101747;1318;74440;-23
2021/12/03 06:10:43;;;;;;;13.70;4.60;;;;;;;0.97;81.96;97401.56;101737;1320;61128;-23
2021/12/03 06:13:11;;;;;;;11.60;5.10;;;;;;;0.81;82.47;97403.13;101667;1320;61247;-24
2021/12/03 06:15:40;;;;;;;5.10;3.10;;;;;;;0.57;83.41;97411.70;101513;1322;73926;-23
2021/12/03 06:18:09;;;;;;;25.80;4.40;;;;;;;0.40;84.01;97416.27;101577;1323;76007;-23
2021/12/03 06:20:37;;;;;;;4.90;2.30;;;;;;;0.25;85.04;97419.66;101603;1319;74429;-23
2021/12/03 06:23:05;;;;;;;3.00;2.00;;;;;;;0.71;83.73;97420.19;101723;1319;62262;-23
2021/12/03 06:25:34;;;;;;;5.20;3.20;;;;;;;0.77;82.87;97419.96;101348;1320;61236;-23
2021/12/03 06:28:03;;;;;;;2.80;2.10;;;;;;;0.74;83.10;97420.54;101685;1319;73862;-22
2021/12/03 06:30:31;;;;;;;4.10;2.40;;;;;;;0.48;83.84;97426.83;101723;1319;76075;-21
2021/12/03 06:33:00;;;;;;;3.50;2.00;;;;;;;0.31;84.44;97429.16;101621;1322;74430;-21
2021/12/03 06:35:28;;;;;;;4.10;2.20;;;;;;;0.28;84.85;97430.05;101640;1320;61971;-22
2021/12/03 06:37:57;;;;;;;5.70;2.80;;;;;;;0.54;84.04;97430.91;101765;1319;61683;-22
2021/12/03 06:40:26;;;;;;;3.70;2.10;;;;;;;0.66;83.10;97432.52;101771;1319;74603;-22
2021/12/03 06:42:54;;;;;;;3.30;2.40;;;;;;;0.47;83.72;97438.70;101634;1323;72632;-21
2021/12/03 06:45:23;;;;;;;2.40;1.60;;;;;;;0.28;84.63;97440.13;101604;1319;74651;-20
2021/12/03 06:47:52;;;;;;;3.30;1.90;;;;;;;0.21;84.99;97451.32;101677;1325;62717;-20
2021/12/03 06:50:21;;;;;;;4.70;1.80;;;;;;;0.54;83.89;97459.75;101745;1319;61122;-20
2021/12/03 06:53:01;;;;;;;4.30;2.00;;;;;;;0.61;83.44;97465.26;101793;1320;73913;-23
2021/12/03 06:55:37;;;;;;;2.20;1.40;;;;;;;0.38;83.94;97463.69;101640;1324;73250;-22
2021/12/03 06:58:05;;;;;;;3.20;1.80;;;;;;;0.29;84.36;97470.93;101690;1323;72348;-22
2021/12/03 07:00:35;;;;;;;2.70;1.60;;;;;;;0.04;85.62;97477.63;101488;1320;62020;-23
2021/12/03 07:03:03;;;;;;;4.00;1.70;;;;;;;0.56;84.24;97489.48;101694;1319;61072;-24
2021/12/03 07:05:32;;;;;;;2.60;1.80;;;;;;;0.64;82.98;97488.82;101732;1320;74850;-24
2021/12/03 07:08:00;;;;;;;2.60;1.30;;;;;;;0.53;83.47;97485.08;101178;1322;76037;-23
2021/12/03 07:10:29;;;;;;;3.10;1.40;;;;;;;0.29;84.05;97479.45;101560;1319;74254;-22
2021/12/03 07:12:57;;;;;;;2.30;1.30;;;;;;;-0.03;85.57;97485.55;101374;1325;61211;-21
2021/12/03 07:15:26;;;;;;;2.20;1.30;;;;;;;0.19;85.27;97495.77;101525;1323;61995;-21
2021/12/03 07:17:54;;;;;;;2.90;1.40;;;;;;;0.59;83.56;97493.58;101505;1324;74665;-22
2021/12/03 07:20:24;;;;;;;2.40;1.30;;;;;;;0.34;84.23;97492.63;101578;1319;76272;-22
2021/12/03 07:22:52;;;;;;;2.00;1.20;;;;;;;0.30;84.46;97500.41;101311;1326;74562;-23
2021/12/03 07:25:21;;;;;;;3.30;1.40;;;;;;;0.13;85.04;97504.56;101711;1319;61464;-23
2021/12/03 07:27:50;;;;;;;2.10;0.80;;;;;;;-0.09;86.28;97505.23;102142;1319;61190;-23
2021/12/03 07:30:19;;;;;;;2.20;1.20;;;;;;;0.53;84.42;97509.00;102265;1320;74867;-24
2021/12/03 07:32:48;;;;;;;4.40;2.30;;;;;;;0.67;83.03;97509.14;102321;1316;76078;-24
2021/12/03 07:35:16;;;;;;;4.70;2.20;;;;;;;0.46;83.59;97515.75;102219;1314;73991;-24
2021/12/03 07:37:45;;;;;;;7.80;2.80;;;;;;;0.23;84.53;97514.83;102312;1312;61092;-23
2021/12/03 07:40:14;;;;;;;2.50;1.70;;;;;;;0.04;85.64;97525.93;102295;1313;61116;-23
2021/12/03 07:42:42;;;;;;;3.00;1.60;;;;;;;0.44;84.26;97534.19;102310;1313;73782;-23
2021/12/03 07:45:12;;;;;;;3.70;1.10;;;;;;;0.40;84.06;97536.14;102261;1312;76261;-22
2021/12/03 07:47:40;;;;;;;3.10;1.40;;;;;;;0.49;83.58;97539.80;101935;1315;75229;-22
2021/12/03 07:50:10;;;;;;;4.70;2.00;;;;;;;0.39;83.80;97537.87;102119;1314;61088;-23
2021/12/03 07:52:42;;;;;;;;;;;;;;;0.09;85.39;97545.73;102262;1313;61598;-22
2021/12/03 07:55:10;;;;;;;3.50;1.40;;;;;;;0.21;85.23;97552.84;102206;1313;74864;-23
2021/12/03 07:57:39;;;;;;;1.50;0.80;;;;;;;0.54;84.04;97561.56;102275;1314;75434;-23
2021/12/03 08:00:08;;;;;;;3.30;1.50;;;;;;;0.70;83.10;97566.02;102180;1319;73122;-22
2021/12/03 08:02:39;;;;;;;2.50;1.00;;;;;;;0.66;83.17;97565.73;102304;1312;61801;-23
2021/12/03 08:05:08;;;;;;;2.10;1.30;;;;;;;0.59;83.19;97575.55;102271;1314;61192;-23
2021/12/03 08:07:37;;;;;;;3.50;1.10;;;;;;;0.38;83.95;97580.27;102330;1313;74805;-23
2021/12/03 08:10:06;;;;;;;1.50;0.90;;;;;;;0.52;83.66;97583.33;102259;1313;75338;-23
2021/12/03 08:12:39;;;;;;;3.50;1.80;;;;;;;1.01;81.82;97586.02;101927;1315;74232;-24
2021/12/03 08:15:07;;;;;;;3.00;1.40;;;;;;;0.77;82.31;97582.27;102148;1319;61212;-23
2021/12/03 08:17:36;;;;;;;2.70;1.30;;;;;;;0.55;83.33;97581.95;102284;1313;61123;-24
2021/12/03 08:20:05;;;;;;;1.40;1.00;;;;;;;0.35;84.05;97590.68;102358;1317;73293;-24
2021/12/03 08:22:34;;;;;;;5.60;1.00;;;;;;;0.21;84.78;97597.44;101826;1314;74163;-24
2021/12/03 08:25:03;;;;;;;1.80;1.30;;;;;;;0.31;84.61;97601.57;102279;1313;74261;-24
2021/12/03 08:27:31;;;;;;;2.50;1.20;;;;;;;0.71;83.06;97600.95;102194;1314;62004;-23
2021/12/03 08:30:00;;;;;;;0.90;0.80;;;;;;;0.79;82.61;97606.95;102161;1314;61220;-23
2021/12/03 08:32:28;;;;;;;0.50;0.50;;;;;;;0.76;82.54;97615.80;102168;1312;74020;-24
2021/12/03 08:34:57;;;;;;;1.40;0.80;;;;;;;0.40;83.71;97620.98;102281;1312;75833;-24
2021/12/03 08:37:26;;;;;;;1.30;0.80;;;;;;;0.14;84.68;97621.91;102269;1316;74371;-24
2021/12/03 08:39:58;;;;;;;1.40;1.00;;;;;;;0.36;84.73;97628.22;102242;1314;61100;-24
2021/12/03 08:42:26;;;;;;;1.50;1.10;;;;;;;0.62;82.91;97632.95;101989;1312;61852;-24
2021/12/03 08:44:55;;;;;;;2.80;1.30;;;;;;;0.40;83.58;97636.02;102296;1317;73895;-23
2021/12/03 08:47:23;;;;;;;2.30;1.40;;;;;;;0.16;84.06;97633.58;102221;1313;73910;-24
2021/12/03 08:49:54;;;;;;;3.10;2.20;;;;;;;0.09;83.98;97630.06;102275;1313;73253;-23
2021/12/03 08:52:31;;;;;;;3.30;1.90;;;;;;;0.09;84.20;97620.17;102256;1313;62781;-23
2021/12/03 08:55:00;;;;;;;4.80;2.20;;;;;;;0.41;82.93;97628.75;102164;1313;62179;-23
2021/12/03 08:57:31;;;;;;;3.50;2.00;;;;;;;0.49;82.71;97629.30;102336;1312;74807;-23
2021/12/03 09:00:03;;;;;;;4.10;2.00;;;;;;;0.55;82.42;97638.52;101976;1316;75955;-23
2021/12/03 09:02:31;;;;;;;1.70;1.20;;;;;;;0.21;83.82;97648.77;101801;1316;72842;-23
2021/12/03 09:05:00;;;;;;;2.40;1.40;;;;;;;0.12;84.38;97656.50;102263;1312;62212;-23
2021/12/03 09:07:28;;;;;;;2.90;1.70;;;;;;;0.25;83.68;97658.23;102389;1316;61103;-23
2021/12/03 09:09:57;;;;;;;3.10;1.80;;;;;;;0.34;83.24;97663.50;102243;1312;73854;-23
2021/12/03 09:12:46;;;;;;;3.60;2.00;;;;;;;0.28;83.11;97661.14;102243;1313;77310;-23
2021/12/03 09:15:17;;;;;;;2.40;1.90;;;;;;;0.06;84.10;97656.00;102179;1314;72660;-23
2021/12/03 09:22:54;;;;;;;3.30;1.50;;;;;;;0.45;82.85;97653.48;102233;1312;74546;-24
2021/12/03 09:25:30;;;;;;;2.80;1.60;;;;;;;0.38;82.56;97648.77;102261;1317;75810;-24
2021/12/03 09:28:02;;;;;;;4.10;2.10;;;;;;;0.36;82.79;97648.69;102292;1313;74439;-23
2021/12/03 09:30:36;;;;;;;3.00;2.30;;;;;;;0.08;84.16;97658.25;102169;1314;61460;-24
2021/12/03 09:33:06;;;;;;;3.40;2.00;;;;;;;-0.05;84.94;97675.27;102159;1313;61209;-24
2021/12/03 09:35:43;;;;;;;2.90;1.70;;;;;;;0.39;83.19;97676.04;101944;1313;73315;-24
2021/12/03 09:38:12;;;;;;;5.60;1.60;;;;;;;0.80;81.43;97673.13;102130;1313;76062;-24
2021/12/03 09:40:41;;;;;;;1.90;1.50;;;;;;;0.69;81.27;97678.30;102171;1312;74495;-24
2021/12/03 09:43:10;;;;;;;1.50;1.10;;;;;;;0.55;81.93;97672.50;102299;1313;61202;-24
2021/12/03 09:45:43;;;;;;;2.40;1.50;;;;;;;0.36;82.54;97674.52;102317;1312;61133;-24
2021/12/03 09:48:27;;;;;;;1.80;1.40;;;;;;;0.02;83.86;97664.27;102237;1313;74876;-24
2021/12/03 09:50:56;;;;;;;3.90;1.70;;;;;;;0.57;82.18;97663.13;102280;1313;75005;-24
2021/12/03 09:54:20;;;;;;;3.10;1.60;;;;;;;0.48;81.86;97662.70;102238;1313;73032;-24
2021/12/03 09:56:16;;;;;;;1.60;1.40;;;;;;;0.39;81.94;97663.36;102145;1313;61196;-24
2021/12/03 10:01:56;;;;;;;2.40;1.60;;;;;;;-0.03;83.40;97666.93;102219;1317;74659;-24
2021/12/03 10:13:05;;;;;;;4.70;2.30;;;;;;;0.09;83.00;97681.05;102293;1313;61213;-24
2021/12/03 10:15:37;;;;;;;2.30;1.90;;;;;;;-0.03;83.70;97673.31;102293;1312;75641;-24
2021/12/03 10:18:22;;;;;;;4.00;2.40;;;;;;;0.12;82.43;97666.36;102275;1314;76108;-24
2021/12/03 10:21:04;;;;;;;3.80;2.50;;;;;;;0.24;81.86;97672.48;102134;1314;74449;-24
2021/12/03 10:50:04;;;;;;;5.10;4.00;;;;;;;0.54;80.52;97723.41;102133;1313;62368;-24
2021/12/03 11:04:22;;;;;;;6.20;3.30;;;;;;;0.18;81.23;97739.58;102265;1312;61210;-25
2021/12/03 11:34:11;;;;;;;8.20;4.50;;;;;;;0.56;79.63;97762.77;102138;1315;61211;-25
2021/12/03 11:59:54;;;;;;;6.60;4.60;;;;;;;0.62;78.94;97767.52;102163;1313;61198;-25
2021/12/03 12:06:06;;;;;;;7.20;3.50;;;;;;;0.95;79.00;97785.35;102242;1313;74135;-25
2021/12/03 12:11:57;;;;;;;8.70;4.10;;;;;;;1.12;77.14;97790.10;102244;1312;73515;-25
2021/12/03 12:26:17;;;;;;;9.60;4.30;;;;;;;1.23;76.74;97814.90;100949;1327;73793;-25
2021/12/03 13:02:31;;;;;;;5.90;4.20;;;;;;;1.12;76.53;97881.73;102273;1316;73100;-25
2021/12/03 13:15:56;;;;;;;7.80;4.10;;;;;;;0.50;78.73;97903.68;102092;1312;74735;-24
2021/12/03 14:09:46;;;;;;;6.40;3.50;;;;;;;0.22;79.05;97972.85;102258;1316;62131;-25
2021/12/03 14:40:55;;;;;;;6.60;4.80;;;;;;;-0.51;81.08;98012.64;101973;1313;75627;-24
2021/12/03 14:43:32;;;;;;;8.60;4.80;;;;;;;0.05;79.40;98013.44;102192;1313;76093;-24
2021/12/03 14:56:16;;;;;;;6.60;3.90;;;;;;;-0.45;79.96;98017.43;102237;1313;76122;-24
2021/12/03 14:58:53;;;;;;;5.30;3.30;;;;;;;-0.63;80.65;98026.05;102111;1316;74497;-24
2021/12/03 15:01:38;;;;;;;8.80;4.30;;;;;;;-0.23;79.99;98037.77;102099;1313;61159;-24
2021/12/03 15:07:11;;;;;;;6.80;4.10;;;;;;;0.04;77.91;98039.26;101953;1316;75402;-24
2021/12/03 15:09:46;;;;;;;8.70;4.00;;;;;;;-0.22;78.93;98044.55;102047;1314;76063;-24
2021/12/03 15:34:09;;;;;;;11.60;4.90;;;;;;;-0.98;80.53;98088.85;102206;1316;75675;-24
2021/12/03 15:54:32;;;;;;;8.20;4.10;;;;;;;-1.39;80.80;98109.20;102225;1312;74594;-24
2021/12/03 16:53:49;;;;;;;5.00;3.50;;;;;;;-2.16;80.95;98185.31;102151;1316;62186;-24
2021/12/03 16:56:25;;;;;;;6.50;3.50;;;;;;;-1.70;79.92;98187.22;102099;1313;74617;-24
2021/12/03 16:58:59;;;;;;;4.60;3.20;;;;;;;-1.26;77.66;98194.23;102032;1312;75280;-24
2021/12/03 17:01:36;;;;;;;8.90;3.60;;;;;;;-1.37;77.67;98195.09;102163;1319;74261;-24
2021/12/03 17:29:39;;;;;;;10.20;5.20;;;;;;;-2.48;80.06;98233.92;101950;1315;74467;-24
2021/12/03 17:59:59;;;;;;;6.70;4.00;;;;;;;-1.79;75.87;98248.01;101966;1312;61195;-25
2021/12/03 18:05:05;;;;;;;6.30;4.00;;;;;;;-2.32;76.96;98244.13;102299;1318;75458;-24
2021/12/03 18:08:00;;;;;;;8.60;3.90;;;;;;;-2.64;77.47;98242.20;102173;1312;76529;-24
2021/12/03 18:57:11;;;;;;;5.90;3.40;;;;;;;-2.83;79.83;98304.30;102289;1312;62013;-24
2021/12/03 18:59:51;;;;;;;7.50;4.30;;;;;;;-2.32;78.06;98308.23;102268;1316;75657;-24
2021/12/03 19:02:22;;;;;;;4.70;2.70;;;;;;;-2.36;77.44;98312.47;102309;1317;75261;-24
2021/12/03 19:05:02;;;;;;;5.00;3.60;;;;;;;-2.65;77.58;98312.60;102165;1319;72184;-24
2021/12/03 19:10:19;;;;;;;6.30;4.20;;;;;;;-3.30;79.55;98319.80;102251;1312;61235;-24
2021/12/03 19:12:56;;;;;;;4.80;3.10;;;;;;;-3.56;80.17;98320.38;102344;1316;76085;-24
2021/12/03 19:15:25;;;;;;;4.90;2.80;;;;;;;-3.78;80.73;98324.89;102227;1312;76095;-24
2021/12/03 19:17:53;;;;;;;6.40;3.70;;;;;;;-3.50;81.35;98327.46;102162;1313;72902;-24
2021/12/03 19:20:43;;;;;;;8.90;3.60;;;;;;;-2.55;78.78;98331.08;102131;1316;61930;-25
2021/12/03 19:23:11;;;;;;;9.30;4.20;;;;;;;-2.30;77.25;98329.58;102134;1317;61641;-24
2021/12/03 19:25:39;;;;;;;7.10;3.50;;;;;;;-2.48;77.46;98330.46;102258;1317;73507;-25
2021/12/03 19:28:08;;;;;;;8.60;4.00;;;;;;;-2.77;77.91;98331.08;102314;1315;74870;-24